LFBE/EGC METAR and TAF weather

Enter ICAO airport designator
Station Type Date Time Source
LFBE METAR 2020/10/29 16:30 UTC NOAA

LFBE 291630Z AUTO 08002KT 9999 BKN046 16/13 Q1025 NOSIG


Station Type Date Time Source
LFBE Decoded METAR 2020/10/29 16:30 UTC NOAA

Bergerac, France (LFBE) 44-49N 000-31E 52M
Oct 29, 2020 - 12:30 PM EDT / 2020.10.29 1630 UTC
Wind: from the E (080 degrees) at 2 MPH (2 KT):0
Visibility: greater than 7 mile(s):0
Sky conditions: mostly cloudy
Temperature: 60 F (16 C)
Dew Point: 55 F (13 C)
Relative Humidity: 82%
Pressure (altimeter): 30.27 in. Hg (1025 hPa)
ob: LFBE 291630Z AUTO 08002KT 9999 BKN046 16/13 Q1025 NOSIG
cycle: 16

Station Type Date Time Source
LFBE TAF 2020/10/29 12:21 UTC NOAA

TAF LFBE 291100Z 2912/3012 26008KT 9999 SCT020
TEMPO 3000/3003 2000 MIFG PROB40 3003/3008 0400 FG VV///
TEMPO 3008/3010 BKN010

Example: see airport list